This is the latest recevied weather packets stored in our database for station/object TG9SRP-22. If no packets are shown the sender has not sent any weather packets the latest 10 day(s).
| Time | Temp. | Humidity | Pressure | Rain* | Wind** | Luminosity | Snow |
|---|---|---|---|---|---|---|---|
| 1777735533 | 21.11° C | 56% | 1015 hPa | 0 mm | - | - | - |
| 1777734932 | 21.11° C | 56% | 1014 hPa | 0 mm | - | - | - |
| 1777734332 | 21.11° C | 56% | 1014 hPa | 0 mm | - | - | - |
| 1777733731 | 18.89° C | 68% | 1014 hPa | 0 mm | - | - | - |
| 1777733130 | 18.89° C | 68% | 1014 hPa | 0 mm | - | - | - |
| 1777732530 | 18.89° C | 68% | 1014 hPa | 0 mm | - | - | - |
| 1777731929 | 18.89° C | 68% | 1015 hPa | 0 mm | - | - | - |
| 1777731329 | 18.89° C | 68% | 1014 hPa | 0 mm | - | - | - |
| 1777730728 | 18.89° C | 68% | 1014 hPa | 0 mm | - | - | - |
| 1777730127 | 17.22° C | 82% | 1014 hPa | 0 mm | - | - | - |
| 1777729527 | 17.22° C | 82% | 1015 hPa | 0 mm | - | - | - |
| 1777728926 | 15° C | 84% | 1015 hPa | 0 mm | - | - | - |
| 1777728325 | 16.11° C | 84% | 1015 hPa | 0 mm | - | - | - |
| 1777727725 | 16.67° C | 82% | 1014 hPa | 0 mm | - | - | - |
| 1777727124 | 15° C | 94% | 1014 hPa | 0 mm | - | - | - |
| 1777726523 | 15° C | 94% | 1014 hPa | 0 mm | - | - | - |
| 1777725923 | 15° C | 94% | 1014 hPa | 0 mm | - | - | - |
| 1777725322 | 12.78° C | 96% | 1014 hPa | 0 mm | - | - | - |
| 1777724722 | 13.33° C | 96% | 1014 hPa | 0 mm | - | - | - |
| 1777724121 | 13.89° C | 96% | 1014 hPa | 0 mm | - | - | - |
| 1777723520 | 14.44° C | 97% | 1014 hPa | 0 mm | - | - | - |
| 1777722919 | 12.22° C | 98% | 1015 hPa | 0 mm | - | - | - |
| 1777722319 | 12.22° C | 97% | 1015 hPa | 0 mm | - | - | - |
| 1777721718 | 12.78° C | 96% | 1015 hPa | 0 mm | - | - | - |
| 1777721118 | 12.22° C | 93% | 1014 hPa | 0 mm | - | - | - |
* Rain latest hour (hover to see other rain measurements)
** Current wind speed in m/s (hover to see current wind gust speed)